Terminal Aerodrome Forecast
Issued by NWS

Home | Current Version | Previous Version | Text Only | Print | Product List | Glossary On
Versions: 1 2 3 4 5 6 7 8 9 10 11 12 13 14 15 16 17 18 19 20
000
FTUS45 KBOI 222340
TAFTWF
TAF
KTWF 222340Z 2300/2324 VRB06KT P6SM VCSH OVC020
      TEMPO 2300/2304 VRB06KT 1/2SM -SN FZFG OVC015
     FM230700 25015G25KT 1SM BLSN OVC009
     FM231700 26020G30KT 2SM -SN OVC009=

USA.gov is the U.S. government's official web portal to all federal, state and local government web resources and services.